sensor_id;sensor_type;location;lat;lon;timestamp;temperature;humidity
44695;DHT22;32845;59.422;17.930;2023-07-22T00:02:23;13.40;99.90
44695;DHT22;32845;59.422;17.930;2023-07-22T00:06:53;13.30;99.90
44695;DHT22;32845;59.422;17.930;2023-07-22T00:11:24;13.30;99.90
44695;DHT22;32845;59.422;17.930;2023-07-22T00:15:55;13.30;99.90
44695;DHT22;32845;59.422;17.930;2023-07-22T00:20:26;13.20;99.90
44695;DHT22;32845;59.422;17.930;2023-07-22T00:24:57;13.20;99.90
44695;DHT22;32845;59.422;17.930;2023-07-22T00:29:30;13.10;99.90
44695;DHT22;32845;59.422;17.930;2023-07-22T00:34:01;13.00;99.90
44695;DHT22;32845;59.422;17.930;2023-07-22T00:38:31;12.90;99.90
44695;DHT22;32845;59.422;17.930;2023-07-22T00:43:02;12.80;99.90
44695;DHT22;32845;59.422;17.930;2023-07-22T00:47:34;12.80;99.90
44695;DHT22;32845;59.422;17.930;2023-07-22T00:52:05;12.70;99.90
44695;DHT22;32845;59.422;17.930;2023-07-22T00:56:36;12.60;99.90
44695;DHT22;32845;59.422;17.930;2023-07-22T01:01:07;12.50;99.90
44695;DHT22;32845;59.422;17.930;2023-07-22T01:05:38;12.40;99.90
44695;DHT22;32845;59.422;17.930;2023-07-22T01:10:09;12.40;99.90
44695;DHT22;32845;59.422;17.930;2023-07-22T01:14:41;12.40;99.90
44695;DHT22;32845;59.422;17.930;2023-07-22T01:19:14;12.30;99.90
44695;DHT22;32845;59.422;17.930;2023-07-22T01:23:46;12.20;99.90
44695;DHT22;32845;59.422;17.930;2023-07-22T01:28:17;12.20;99.90
44695;DHT22;32845;59.422;17.930;2023-07-22T01:32:47;12.20;99.90
44695;DHT22;32845;59.422;17.930;2023-07-22T01:37:18;12.30;99.90
44695;DHT22;32845;59.422;17.930;2023-07-22T01:41:49;12.30;99.90
44695;DHT22;32845;59.422;17.930;2023-07-22T01:46:20;12.40;99.90
44695;DHT22;32845;59.422;17.930;2023-07-22T01:50:51;12.40;99.90
44695;DHT22;32845;59.422;17.930;2023-07-22T01:55:22;12.40;99.90
44695;DHT22;32845;59.422;17.930;2023-07-22T01:59:53;12.30;99.90
44695;DHT22;32845;59.422;17.930;2023-07-22T02:04:23;12.30;99.90
44695;DHT22;32845;59.422;17.930;2023-07-22T02:08:55;12.30;99.90
44695;DHT22;32845;59.422;17.930;2023-07-22T02:13:26;12.20;99.90
44695;DHT22;32845;59.422;17.930;2023-07-22T02:17:56;12.20;99.90
44695;DHT22;32845;59.422;17.930;2023-07-22T02:22:27;12.20;99.90
44695;DHT22;32845;59.422;17.930;2023-07-22T02:26:58;12.20;99.90
44695;DHT22;32845;59.422;17.930;2023-07-22T02:31:28;12.20;99.90
44695;DHT22;32845;59.422;17.930;2023-07-22T02:35:59;12.20;99.90
44695;DHT22;32845;59.422;17.930;2023-07-22T02:40:29;12.20;99.90
44695;DHT22;32845;59.422;17.930;2023-07-22T02:45:00;12.20;99.90
44695;DHT22;32845;59.422;17.930;2023-07-22T02:49:31;12.20;99.90
44695;DHT22;32845;59.422;17.930;2023-07-22T02:54:02;12.20;99.90
44695;DHT22;32845;59.422;17.930;2023-07-22T02:58:34;12.10;99.90
44695;DHT22;32845;59.422;17.930;2023-07-22T03:03:04;12.10;99.90
44695;DHT22;32845;59.422;17.930;2023-07-22T03:07:39;12.20;99.90
44695;DHT22;32845;59.422;17.930;2023-07-22T03:12:09;12.20;99.90
44695;DHT22;32845;59.422;17.930;2023-07-22T03:16:40;12.30;99.90
44695;DHT22;32845;59.422;17.930;2023-07-22T03:21:10;12.40;99.90
44695;DHT22;32845;59.422;17.930;2023-07-22T03:25:41;12.40;99.90
44695;DHT22;32845;59.422;17.930;2023-07-22T03:30:16;12.50;99.90
44695;DHT22;32845;59.422;17.930;2023-07-22T03:34:47;12.60;99.90
44695;DHT22;32845;59.422;17.930;2023-07-22T03:39:17;12.60;99.90
44695;DHT22;32845;59.422;17.930;2023-07-22T03:43:48;12.70;99.90
44695;DHT22;32845;59.422;17.930;2023-07-22T03:48:19;12.80;99.90
44695;DHT22;32845;59.422;17.930;2023-07-22T03:52:49;12.80;99.90
44695;DHT22;32845;59.422;17.930;2023-07-22T03:57:25;12.80;99.90
44695;DHT22;32845;59.422;17.930;2023-07-22T04:01:56;12.90;99.90
44695;DHT22;32845;59.422;17.930;2023-07-22T04:06:26;12.90;99.90
44695;DHT22;32845;59.422;17.930;2023-07-22T04:10:57;13.10;99.90
44695;DHT22;32845;59.422;17.930;2023-07-22T04:15:30;13.10;99.90
44695;DHT22;32845;59.422;17.930;2023-07-22T04:20:00;13.10;99.90
44695;DHT22;32845;59.422;17.930;2023-07-22T04:24:31;13.20;99.90
44695;DHT22;32845;59.422;17.930;2023-07-22T04:29:02;13.20;99.90
44695;DHT22;32845;59.422;17.930;2023-07-22T04:33:32;13.30;99.90
44695;DHT22;32845;59.422;17.930;2023-07-22T04:38:03;13.30;99.90
44695;DHT22;32845;59.422;17.930;2023-07-22T04:42:33;13.40;99.90
44695;DHT22;32845;59.422;17.930;2023-07-22T04:47:04;13.50;99.90
44695;DHT22;32845;59.422;17.930;2023-07-22T04:51:35;13.50;99.90
44695;DHT22;32845;59.422;17.930;2023-07-22T04:56:05;13.60;99.90
44695;DHT22;32845;59.422;17.930;2023-07-22T05:00:36;13.60;99.90
44695;DHT22;32845;59.422;17.930;2023-07-22T05:05:07;13.70;99.90
44695;DHT22;32845;59.422;17.930;2023-07-22T05:09:38;13.70;99.90
44695;DHT22;32845;59.422;17.930;2023-07-22T05:14:09;13.80;99.90
44695;DHT22;32845;59.422;17.930;2023-07-22T05:18:40;13.80;99.90
44695;DHT22;32845;59.422;17.930;2023-07-22T05:23:11;13.90;99.90
44695;DHT22;32845;59.422;17.930;2023-07-22T05:27:42;14.00;99.90
44695;DHT22;32845;59.422;17.930;2023-07-22T05:32:13;14.10;99.90
44695;DHT22;32845;59.422;17.930;2023-07-22T05:36:43;14.20;99.90
44695;DHT22;32845;59.422;17.930;2023-07-22T05:41:14;14.30;99.90
44695;DHT22;32845;59.422;17.930;2023-07-22T05:45:44;14.30;99.90
44695;DHT22;32845;59.422;17.930;2023-07-22T05:50:15;14.40;99.90
44695;DHT22;32845;59.422;17.930;2023-07-22T05:54:46;14.50;99.90
44695;DHT22;32845;59.422;17.930;2023-07-22T05:59:16;14.60;99.90
44695;DHT22;32845;59.422;17.930;2023-07-22T06:03:47;14.70;99.90
44695;DHT22;32845;59.422;17.930;2023-07-22T06:08:17;14.80;99.90
44695;DHT22;32845;59.422;17.930;2023-07-22T06:12:48;14.90;99.90
44695;DHT22;32845;59.422;17.930;2023-07-22T06:17:19;15.10;99.90
44695;DHT22;32845;59.422;17.930;2023-07-22T06:21:50;15.20;99.90
44695;DHT22;32845;59.422;17.930;2023-07-22T06:26:21;15.30;99.90
44695;DHT22;32845;59.422;17.930;2023-07-22T06:30:52;15.30;99.90
44695;DHT22;32845;59.422;17.930;2023-07-22T06:35:22;15.30;99.90
44695;DHT22;32845;59.422;17.930;2023-07-22T06:39:53;15.40;99.90
44695;DHT22;32845;59.422;17.930;2023-07-22T06:44:24;15.50;99.90
44695;DHT22;32845;59.422;17.930;2023-07-22T06:48:54;15.60;99.90
44695;DHT22;32845;59.422;17.930;2023-07-22T06:53:25;15.60;99.90
44695;DHT22;32845;59.422;17.930;2023-07-22T06:57:56;15.70;99.90
44695;DHT22;32845;59.422;17.930;2023-07-22T07:02:26;15.70;99.90
44695;DHT22;32845;59.422;17.930;2023-07-22T07:06:57;15.90;99.90
44695;DHT22;32845;59.422;17.930;2023-07-22T07:11:30;16.00;99.90
44695;DHT22;32845;59.422;17.930;2023-07-22T07:16:24;16.00;99.90
44695;DHT22;32845;59.422;17.930;2023-07-22T07:20:55;16.00;99.90
44695;DHT22;32845;59.422;17.930;2023-07-22T07:25:25;16.10;99.90
44695;DHT22;32845;59.422;17.930;2023-07-22T07:29:56;16.10;99.90
44695;DHT22;32845;59.422;17.930;2023-07-22T07:34:27;16.30;99.90
44695;DHT22;32845;59.422;17.930;2023-07-22T07:38:57;16.30;99.90
44695;DHT22;32845;59.422;17.930;2023-07-22T07:43:28;16.40;99.90
44695;DHT22;32845;59.422;17.930;2023-07-22T07:47:59;16.50;99.90
44695;DHT22;32845;59.422;17.930;2023-07-22T07:52:29;16.60;99.90
44695;DHT22;32845;59.422;17.930;2023-07-22T07:57:00;16.60;99.90
44695;DHT22;32845;59.422;17.930;2023-07-22T08:01:30;16.60;99.90
44695;DHT22;32845;59.422;17.930;2023-07-22T08:06:02;16.60;99.90
44695;DHT22;32845;59.422;17.930;2023-07-22T08:10:32;16.60;99.90
44695;DHT22;32845;59.422;17.930;2023-07-22T08:15:04;16.60;99.90
44695;DHT22;32845;59.422;17.930;2023-07-22T08:19:34;16.80;99.90
44695;DHT22;32845;59.422;17.930;2023-07-22T08:24:05;17.00;99.90
44695;DHT22;32845;59.422;17.930;2023-07-22T08:28:36;17.00;99.90
44695;DHT22;32845;59.422;17.930;2023-07-22T08:33:06;17.10;99.90
44695;DHT22;32845;59.422;17.930;2023-07-22T08:37:40;17.20;99.90
44695;DHT22;32845;59.422;17.930;2023-07-22T08:42:11;17.40;99.90
44695;DHT22;32845;59.422;17.930;2023-07-22T08:46:45;17.60;99.90
44695;DHT22;32845;59.422;17.930;2023-07-22T08:51:17;17.50;99.90
44695;DHT22;32845;59.422;17.930;2023-07-22T08:55:48;17.50;99.90
44695;DHT22;32845;59.422;17.930;2023-07-22T09:00:19;17.60;99.90
44695;DHT22;32845;59.422;17.930;2023-07-22T09:04:50;17.70;99.90
44695;DHT22;32845;59.422;17.930;2023-07-22T09:09:21;17.80;99.90
44695;DHT22;32845;59.422;17.930;2023-07-22T09:13:53;17.90;99.90
44695;DHT22;32845;59.422;17.930;2023-07-22T09:18:24;17.90;99.90
44695;DHT22;32845;59.422;17.930;2023-07-22T09:22:55;18.00;99.90
44695;DHT22;32845;59.422;17.930;2023-07-22T09:27:33;18.20;99.90
44695;DHT22;32845;59.422;17.930;2023-07-22T09:32:05;18.30;99.90
44695;DHT22;32845;59.422;17.930;2023-07-22T09:36:56;18.20;99.90
44695;DHT22;32845;59.422;17.930;2023-07-22T09:41:30;18.20;99.90
44695;DHT22;32845;59.422;17.930;2023-07-22T09:46:10;18.20;99.90
44695;DHT22;32845;59.422;17.930;2023-07-22T09:50:40;18.40;99.90
44695;DHT22;32845;59.422;17.930;2023-07-22T09:55:11;18.50;99.90
44695;DHT22;32845;59.422;17.930;2023-07-22T09:59:43;18.40;99.90
44695;DHT22;32845;59.422;17.930;2023-07-22T10:04:16;18.50;99.90
44695;DHT22;32845;59.422;17.930;2023-07-22T10:08:48;18.60;99.90
44695;DHT22;32845;59.422;17.930;2023-07-22T10:13:19;18.90;99.90
44695;DHT22;32845;59.422;17.930;2023-07-22T10:17:51;19.00;99.90
44695;DHT22;32845;59.422;17.930;2023-07-22T10:22:22;19.00;99.90
44695;DHT22;32845;59.422;17.930;2023-07-22T10:26:52;19.10;99.90
44695;DHT22;32845;59.422;17.930;2023-07-22T10:31:24;19.20;99.90
44695;DHT22;32845;59.422;17.930;2023-07-22T10:45:30;19.70;99.90
44695;DHT22;32845;59.422;17.930;2023-07-22T10:50:06;19.60;99.90
44695;DHT22;32845;59.422;17.930;2023-07-22T10:54:37;19.60;99.90
44695;DHT22;32845;59.422;17.930;2023-07-22T10:59:10;19.60;99.90
44695;DHT22;32845;59.422;17.930;2023-07-22T11:04:22;19.50;99.90
44695;DHT22;32845;59.422;17.930;2023-07-22T11:08:51;19.50;99.90
44695;DHT22;32845;59.422;17.930;2023-07-22T11:13:28;19.40;99.90
44695;DHT22;32845;59.422;17.930;2023-07-22T11:18:01;19.70;99.90
44695;DHT22;32845;59.422;17.930;2023-07-22T11:22:32;20.10;99.90
44695;DHT22;32845;59.422;17.930;2023-07-22T11:27:04;20.30;99.90
44695;DHT22;32845;59.422;17.930;2023-07-22T11:31:40;20.70;99.90
44695;DHT22;32845;59.422;17.930;2023-07-22T11:36:15;20.70;99.90
44695;DHT22;32845;59.422;17.930;2023-07-22T11:40:46;20.80;99.90
44695;DHT22;32845;59.422;17.930;2023-07-22T11:45:17;21.10;99.90
44695;DHT22;32845;59.422;17.930;2023-07-22T11:49:48;21.60;99.90
44695;DHT22;32845;59.422;17.930;2023-07-22T11:54:21;22.00;99.90
44695;DHT22;32845;59.422;17.930;2023-07-22T11:58:56;22.20;99.50
44695;DHT22;32845;59.422;17.930;2023-07-22T12:03:31;22.20;98.90
44695;DHT22;32845;59.422;17.930;2023-07-22T12:08:03;22.40;98.40
44695;DHT22;32845;59.422;17.930;2023-07-22T12:12:35;22.70;98.50
44695;DHT22;32845;59.422;17.930;2023-07-22T12:17:08;23.20;99.20
44695;DHT22;32845;59.422;17.930;2023-07-22T12:21:39;24.30;96.10
44695;DHT22;32845;59.422;17.930;2023-07-22T12:26:10;25.30;93.80
44695;DHT22;32845;59.422;17.930;2023-07-22T12:30:40;25.50;90.30
44695;DHT22;32845;59.422;17.930;2023-07-22T12:35:12;25.20;90.70
44695;DHT22;32845;59.422;17.930;2023-07-22T12:39:44;24.80;86.70
44695;DHT22;32845;59.422;17.930;2023-07-22T12:44:14;24.40;90.60
44695;DHT22;32845;59.422;17.930;2023-07-22T12:48:45;24.20;90.80
44695;DHT22;32845;59.422;17.930;2023-07-22T12:53:15;24.10;90.60
44695;DHT22;32845;59.422;17.930;2023-07-22T12:57:46;24.00;89.50
44695;DHT22;32845;59.422;17.930;2023-07-22T13:02:16;23.90;90.30
44695;DHT22;32845;59.422;17.930;2023-07-22T13:06:47;24.00;88.40
44695;DHT22;32845;59.422;17.930;2023-07-22T13:11:18;24.00;90.60
44695;DHT22;32845;59.422;17.930;2023-07-22T13:15:48;24.00;90.80
44695;DHT22;32845;59.422;17.930;2023-07-22T13:20:19;24.00;90.60
44695;DHT22;32845;59.422;17.930;2023-07-22T13:24:49;24.00;90.80
44695;DHT22;32845;59.422;17.930;2023-07-22T13:29:20;24.00;90.60
44695;DHT22;32845;59.422;17.930;2023-07-22T13:33:51;23.90;88.80
44695;DHT22;32845;59.422;17.930;2023-07-22T13:38:21;23.60;87.90
44695;DHT22;32845;59.422;17.930;2023-07-22T13:42:52;23.30;90.40
44695;DHT22;32845;59.422;17.930;2023-07-22T13:47:23;23.10;91.70
44695;DHT22;32845;59.422;17.930;2023-07-22T13:51:53;22.90;92.50
44695;DHT22;32845;59.422;17.930;2023-07-22T13:56:24;22.80;92.30
44695;DHT22;32845;59.422;17.930;2023-07-22T14:00:55;22.50;92.90
44695;DHT22;32845;59.422;17.930;2023-07-22T14:05:25;22.60;93.20
44695;DHT22;32845;59.422;17.930;2023-07-22T14:09:56;22.50;93.40
44695;DHT22;32845;59.422;17.930;2023-07-22T14:14:26;22.50;93.70
44695;DHT22;32845;59.422;17.930;2023-07-22T14:18:58;22.30;93.40
44695;DHT22;32845;59.422;17.930;2023-07-22T14:23:29;22.00;93.90
44695;DHT22;32845;59.422;17.930;2023-07-22T14:28:00;21.90;94.10
44695;DHT22;32845;59.422;17.930;2023-07-22T14:32:30;21.60;93.80
44695;DHT22;32845;59.422;17.930;2023-07-22T14:37:01;21.30;94.30
44695;DHT22;32845;59.422;17.930;2023-07-22T14:41:34;21.00;94.40
44695;DHT22;32845;59.422;17.930;2023-07-22T14:46:04;20.80;94.80
44695;DHT22;32845;59.422;17.930;2023-07-22T14:50:35;20.70;95.70
44695;DHT22;32845;59.422;17.930;2023-07-22T14:55:06;20.70;96.00
44695;DHT22;32845;59.422;17.930;2023-07-22T14:59:36;20.50;96.80
44695;DHT22;32845;59.422;17.930;2023-07-22T15:04:08;20.20;99.10
44695;DHT22;32845;59.422;17.930;2023-07-22T15:08:38;20.00;99.90
44695;DHT22;32845;59.422;17.930;2023-07-22T15:13:09;19.80;99.90
44695;DHT22;32845;59.422;17.930;2023-07-22T15:17:39;19.60;99.90
44695;DHT22;32845;59.422;17.930;2023-07-22T15:22:10;19.40;99.90
44695;DHT22;32845;59.422;17.930;2023-07-22T15:26:40;19.40;99.90
44695;DHT22;32845;59.422;17.930;2023-07-22T15:31:11;19.40;99.90
44695;DHT22;32845;59.422;17.930;2023-07-22T15:35:42;19.60;99.90
44695;DHT22;32845;59.422;17.930;2023-07-22T15:40:13;19.70;99.90
44695;DHT22;32845;59.422;17.930;2023-07-22T15:44:43;19.80;99.90
44695;DHT22;32845;59.422;17.930;2023-07-22T15:49:14;19.80;99.50
44695;DHT22;32845;59.422;17.930;2023-07-22T15:53:44;19.70;99.20
44695;DHT22;32845;59.422;17.930;2023-07-22T15:58:16;19.60;98.80
44695;DHT22;32845;59.422;17.930;2023-07-22T16:02:47;19.40;98.90
44695;DHT22;32845;59.422;17.930;2023-07-22T16:07:17;19.50;99.30
44695;DHT22;32845;59.422;17.930;2023-07-22T16:11:48;19.60;99.30
44695;DHT22;32845;59.422;17.930;2023-07-22T16:16:20;19.70;99.40
44695;DHT22;32845;59.422;17.930;2023-07-22T16:20:50;19.80;99.30
44695;DHT22;32845;59.422;17.930;2023-07-22T16:25:21;19.80;98.10
44695;DHT22;32845;59.422;17.930;2023-07-22T16:29:51;19.70;97.50
44695;DHT22;32845;59.422;17.930;2023-07-22T16:34:22;19.60;98.20
44695;DHT22;32845;59.422;17.930;2023-07-22T16:38:53;19.60;97.90
44695;DHT22;32845;59.422;17.930;2023-07-22T16:43:23;19.40;98.20
44695;DHT22;32845;59.422;17.930;2023-07-22T16:47:54;19.40;98.80
44695;DHT22;32845;59.422;17.930;2023-07-22T16:52:24;19.30;98.90
44695;DHT22;32845;59.422;17.930;2023-07-22T16:56:55;19.20;98.90
44695;DHT22;32845;59.422;17.930;2023-07-22T17:01:26;19.10;99.10
44695;DHT22;32845;59.422;17.930;2023-07-22T17:05:56;18.90;99.50
44695;DHT22;32845;59.422;17.930;2023-07-22T17:10:27;18.70;99.90
44695;DHT22;32845;59.422;17.930;2023-07-22T17:14:57;18.60;99.90
44695;DHT22;32845;59.422;17.930;2023-07-22T17:19:28;18.50;99.90
44695;DHT22;32845;59.422;17.930;2023-07-22T17:23:59;18.40;99.90
44695;DHT22;32845;59.422;17.930;2023-07-22T17:28:29;18.30;99.90
44695;DHT22;32845;59.422;17.930;2023-07-22T17:33:03;18.40;99.90
44695;DHT22;32845;59.422;17.930;2023-07-22T17:37:34;18.30;99.90
44695;DHT22;32845;59.422;17.930;2023-07-22T17:42:05;18.30;99.90
44695;DHT22;32845;59.422;17.930;2023-07-22T17:46:36;18.40;99.90
44695;DHT22;32845;59.422;17.930;2023-07-22T17:51:06;18.40;99.90
44695;DHT22;32845;59.422;17.930;2023-07-22T17:55:38;18.40;99.90
44695;DHT22;32845;59.422;17.930;2023-07-22T18:00:09;18.30;99.90
44695;DHT22;32845;59.422;17.930;2023-07-22T18:04:39;18.30;99.90
44695;DHT22;32845;59.422;17.930;2023-07-22T18:09:10;18.20;99.90
44695;DHT22;32845;59.422;17.930;2023-07-22T18:13:40;18.20;99.90
44695;DHT22;32845;59.422;17.930;2023-07-22T18:18:11;18.20;99.90
44695;DHT22;32845;59.422;17.930;2023-07-22T18:22:42;18.20;99.90
44695;DHT22;32845;59.422;17.930;2023-07-22T18:27:12;18.20;99.90
44695;DHT22;32845;59.422;17.930;2023-07-22T18:31:43;18.10;99.90
44695;DHT22;32845;59.422;17.930;2023-07-22T18:36:14;18.10;99.90
44695;DHT22;32845;59.422;17.930;2023-07-22T18:40:45;18.00;99.90
44695;DHT22;32845;59.422;17.930;2023-07-22T18:45:16;18.00;99.90
44695;DHT22;32845;59.422;17.930;2023-07-22T18:49:46;17.90;99.90
44695;DHT22;32845;59.422;17.930;2023-07-22T18:54:17;17.90;99.90
44695;DHT22;32845;59.422;17.930;2023-07-22T18:58:48;17.90;99.90
44695;DHT22;32845;59.422;17.930;2023-07-22T19:03:18;17.80;99.90
44695;DHT22;32845;59.422;17.930;2023-07-22T19:07:49;17.80;99.90
44695;DHT22;32845;59.422;17.930;2023-07-22T19:12:19;17.80;99.90
44695;DHT22;32845;59.422;17.930;2023-07-22T19:16:54;17.80;99.90
44695;DHT22;32845;59.422;17.930;2023-07-22T19:21:25;17.70;99.90
44695;DHT22;32845;59.422;17.930;2023-07-22T19:25:56;17.50;99.90
44695;DHT22;32845;59.422;17.930;2023-07-22T19:30:27;17.40;99.90
44695;DHT22;32845;59.422;17.930;2023-07-22T19:34:57;17.30;99.90
44695;DHT22;32845;59.422;17.930;2023-07-22T19:39:28;17.20;99.90
44695;DHT22;32845;59.422;17.930;2023-07-22T19:43:59;17.10;99.90
44695;DHT22;32845;59.422;17.930;2023-07-22T19:48:31;17.00;99.90
44695;DHT22;32845;59.422;17.930;2023-07-22T19:53:04;16.90;99.90
44695;DHT22;32845;59.422;17.930;2023-07-22T19:57:35;16.80;99.90
44695;DHT22;32845;59.422;17.930;2023-07-22T20:02:06;16.70;99.90
44695;DHT22;32845;59.422;17.930;2023-07-22T20:06:36;16.70;99.90
44695;DHT22;32845;59.422;17.930;2023-07-22T20:11:07;16.60;99.90
44695;DHT22;32845;59.422;17.930;2023-07-22T20:15:38;16.50;99.90
44695;DHT22;32845;59.422;17.930;2023-07-22T20:20:09;16.40;99.90
44695;DHT22;32845;59.422;17.930;2023-07-22T20:24:39;16.30;99.90
44695;DHT22;32845;59.422;17.930;2023-07-22T20:29:10;16.30;99.90
44695;DHT22;32845;59.422;17.930;2023-07-22T20:33:40;16.30;99.90
44695;DHT22;32845;59.422;17.930;2023-07-22T20:38:11;16.20;99.90
44695;DHT22;32845;59.422;17.930;2023-07-22T20:42:44;16.20;99.90
44695;DHT22;32845;59.422;17.930;2023-07-22T20:47:15;16.10;99.90
44695;DHT22;32845;59.422;17.930;2023-07-22T20:51:46;16.10;99.90
44695;DHT22;32845;59.422;17.930;2023-07-22T20:56:16;16.10;99.90
44695;DHT22;32845;59.422;17.930;2023-07-22T21:00:48;16.00;99.90
44695;DHT22;32845;59.422;17.930;2023-07-22T21:05:19;15.90;99.90
44695;DHT22;32845;59.422;17.930;2023-07-22T21:09:49;16.00;99.90
44695;DHT22;32845;59.422;17.930;2023-07-22T21:14:20;15.90;99.90
44695;DHT22;32845;59.422;17.930;2023-07-22T21:18:50;15.90;99.90
44695;DHT22;32845;59.422;17.930;2023-07-22T21:23:21;15.90;99.90
44695;DHT22;32845;59.422;17.930;2023-07-22T21:27:52;15.80;99.90
44695;DHT22;32845;59.422;17.930;2023-07-22T21:32:22;15.80;99.90
44695;DHT22;32845;59.422;17.930;2023-07-22T21:36:53;15.80;99.90
44695;DHT22;32845;59.422;17.930;2023-07-22T21:41:24;15.80;99.90
44695;DHT22;32845;59.422;17.930;2023-07-22T21:45:54;15.70;99.90
44695;DHT22;32845;59.422;17.930;2023-07-22T21:50:25;15.70;99.90
44695;DHT22;32845;59.422;17.930;2023-07-22T21:54:55;15.70;99.90
44695;DHT22;32845;59.422;17.930;2023-07-22T21:59:26;15.70;99.90
44695;DHT22;32845;59.422;17.930;2023-07-22T22:03:56;15.60;99.90
44695;DHT22;32845;59.422;17.930;2023-07-22T22:08:27;15.60;99.90
44695;DHT22;32845;59.422;17.930;2023-07-22T22:12:58;15.60;99.90
44695;DHT22;32845;59.422;17.930;2023-07-22T22:17:28;15.50;99.90
44695;DHT22;32845;59.422;17.930;2023-07-22T22:21:59;15.50;99.90
44695;DHT22;32845;59.422;17.930;2023-07-22T22:26:30;15.40;99.90
44695;DHT22;32845;59.422;17.930;2023-07-22T22:31:01;15.40;99.90
44695;DHT22;32845;59.422;17.930;2023-07-22T22:35:32;15.40;99.90
44695;DHT22;32845;59.422;17.930;2023-07-22T22:40:03;15.40;99.90
44695;DHT22;32845;59.422;17.930;2023-07-22T22:44:34;15.40;99.90
44695;DHT22;32845;59.422;17.930;2023-07-22T22:49:04;15.30;99.90
44695;DHT22;32845;59.422;17.930;2023-07-22T22:53:35;15.30;99.90
44695;DHT22;32845;59.422;17.930;2023-07-22T22:58:06;15.30;99.90
44695;DHT22;32845;59.422;17.930;2023-07-22T23:02:36;15.30;99.90
44695;DHT22;32845;59.422;17.930;2023-07-22T23:07:07;15.30;99.90
44695;DHT22;32845;59.422;17.930;2023-07-22T23:11:37;15.40;99.90
44695;DHT22;32845;59.422;17.930;2023-07-22T23:16:08;15.30;99.90
44695;DHT22;32845;59.422;17.930;2023-07-22T23:20:39;15.30;99.90
44695;DHT22;32845;59.422;17.930;2023-07-22T23:25:09;15.30;99.90
44695;DHT22;32845;59.422;17.930;2023-07-22T23:29:40;15.30;99.90
44695;DHT22;32845;59.422;17.930;2023-07-22T23:34:10;15.30;99.90
44695;DHT22;32845;59.422;17.930;2023-07-22T23:38:41;15.30;99.90
44695;DHT22;32845;59.422;17.930;2023-07-22T23:43:11;15.40;99.90
44695;DHT22;32845;59.422;17.930;2023-07-22T23:47:42;15.30;99.90
44695;DHT22;32845;59.422;17.930;2023-07-22T23:52:15;15.30;99.90
44695;DHT22;32845;59.422;17.930;2023-07-22T23:56:46;15.30;99.90
